Time,TemperatureF,DewpointF,PressureIn,WindDirection,WindDirectionDegrees,WindSpeedMPH,WindSpeedGustMPH,Humidity,HourlyPrecipIn,Conditions,Clouds,dailyrainin,SolarRadiationWatts/m^2,SoftwareType,DateUTC
2013-06-05 00:01:00,62.9,61.2,30.08,South,188,0.0,0.0,94,0.00,,,0.00,0.00,VWS V14.01,2013-06-05 04:01:00,
2013-06-05 00:02:00,62.9,61.2,30.08,South,188,0.0,0.0,94,0.00,,,0.00,0.00,VWS V14.01,2013-06-05 04:02:00,
2013-06-05 00:07:00,62.8,61.0,30.08,South,188,0.0,0.0,94,0.00,,,0.00,0.00,VWS V14.01,2013-06-05 04:07:00,
2013-06-05 00:12:00,62.7,61.0,30.08,South,188,0.0,0.0,94,0.00,,,0.00,0.00,VWS V14.01,2013-06-05 04:12:00,
2013-06-05 00:17:00,62.7,61.0,30.08,South,188,0.0,0.0,94,0.00,,,0.00,0.00,VWS V14.01,2013-06-05 04:17:00,
2013-06-05 00:22:00,62.6,60.8,30.08,South,188,0.0,0.0,94,0.00,,,0.00,0.00,VWS V14.01,2013-06-05 04:22:00,
2013-06-05 00:27:00,62.5,60.8,30.08,South,188,0.0,0.0,94,0.00,,,0.00,0.00,VWS V14.01,2013-06-05 04:27:00,
2013-06-05 00:32:00,62.4,60.7,30.08,South,188,0.0,0.0,94,0.00,,,0.00,0.00,VWS V14.01,2013-06-05 04:32:00,
2013-06-05 00:37:00,62.3,60.8,30.08,South,188,0.0,0.0,95,0.00,,,0.00,0.00,VWS V14.01,2013-06-05 04:37:00,
2013-06-05 00:42:00,62.3,60.8,30.08,South,188,0.0,0.0,95,0.00,,,0.00,0.00,VWS V14.01,2013-06-05 04:42:00,
2013-06-05 00:47:00,62.2,60.8,30.08,South,188,0.0,0.0,95,0.00,,,0.00,0.00,VWS V14.01,2013-06-05 04:47:00,
2013-06-05 00:52:00,62.1,60.7,30.08,South,188,0.0,0.0,95,0.00,,,0.00,0.00,VWS V14.01,2013-06-05 04:52:00,
2013-06-05 00:57:00,62.1,60.7,30.08,South,188,0.0,0.0,95,0.00,,,0.00,0.00,VWS V14.01,2013-06-05 04:57:00,
2013-06-05 01:02:00,62.1,60.7,30.08,South,188,0.0,0.0,95,0.00,,,0.00,0.00,VWS V14.01,2013-06-05 05:02:00,
2013-06-05 01:07:00,62.1,60.7,30.08,South,188,0.0,0.0,95,0.00,,,0.00,0.00,VWS V14.01,2013-06-05 05:07:00,
2013-06-05 01:12:00,62.0,60.6,30.09,South,188,0.0,0.0,95,0.00,,,0.00,0.00,VWS V14.01,2013-06-05 05:12:00,
2013-06-05 01:17:00,62.0,60.6,30.09,South,188,0.0,0.0,95,0.00,,,0.00,0.00,VWS V14.01,2013-06-05 05:17:00,
2013-06-05 01:22:00,62.0,60.6,30.09,South,188,0.0,0.0,95,0.00,,,0.00,0.00,VWS V14.01,2013-06-05 05:22:00,
2013-06-05 01:27:00,62.0,60.6,30.09,South,188,0.0,0.0,95,0.00,,,0.00,0.00,VWS V14.01,2013-06-05 05:27:00,
2013-06-05 01:32:00,62.0,60.6,30.09,South,188,0.0,0.0,95,0.00,,,0.00,0.00,VWS V14.01,2013-06-05 05:32:00,
2013-06-05 01:37:00,62.0,60.8,30.08,South,188,0.0,0.0,96,0.00,,,0.00,0.00,VWS V14.01,2013-06-05 05:37:00,
2013-06-05 01:42:00,62.0,60.8,30.08,South,188,0.0,0.0,96,0.00,,,0.00,0.00,VWS V14.01,2013-06-05 05:42:00,
2013-06-05 01:47:00,62.0,60.8,30.08,South,188,0.0,0.0,96,0.00,,,0.00,0.00,VWS V14.01,2013-06-05 05:47:00,
2013-06-05 01:52:00,62.0,60.8,30.08,South,188,0.0,0.0,96,0.00,,,0.00,0.00,VWS V14.01,2013-06-05 05:52:00,
2013-06-05 01:57:00,62.1,61.0,30.08,South,188,0.0,0.0,96,0.00,,,0.00,0.00,VWS V14.01,2013-06-05 05:57:00,
2013-06-05 02:02:00,62.0,60.8,30.08,South,188,0.0,0.0,96,0.00,,,0.00,0.00,VWS V14.01,2013-06-05 06:02:00,
2013-06-05 02:07:00,62.0,60.8,30.08,South,188,0.0,0.0,96,0.00,,,0.00,0.00,VWS V14.01,2013-06-05 06:07:00,
2013-06-05 02:12:00,62.0,60.8,30.08,South,188,0.0,0.0,96,0.00,,,0.00,0.00,VWS V14.01,2013-06-05 06:12:00,
2013-06-05 02:17:00,62.0,60.8,30.08,South,188,0.0,0.0,96,0.00,,,0.00,0.00,VWS V14.01,2013-06-05 06:17:00,
2013-06-05 02:22:00,62.0,60.8,30.08,South,188,0.0,0.0,96,0.00,,,0.00,0.00,VWS V14.01,2013-06-05 06:22:00,
2013-06-05 02:27:00,62.0,60.8,30.08,South,188,0.0,0.0,96,0.00,,,0.00,0.00,VWS V14.01,2013-06-05 06:27:00,
2013-06-05 02:32:00,62.1,61.0,30.07,South,188,0.0,0.0,96,0.00,,,0.00,0.00,VWS V14.01,2013-06-05 06:32:00,
2013-06-05 02:37:00,62.2,61.0,30.07,South,188,0.0,0.0,96,0.00,,,0.00,0.00,VWS V14.01,2013-06-05 06:37:00,
2013-06-05 02:42:00,62.2,61.0,30.07,South,188,0.0,0.0,96,0.00,,,0.00,0.00,VWS V14.01,2013-06-05 06:42:00,
2013-06-05 02:47:00,62.2,61.0,30.07,South,188,0.0,0.0,96,0.00,,,0.00,0.00,VWS V14.01,2013-06-05 06:47:00,
2013-06-05 02:52:00,62.2,61.0,30.07,South,188,0.0,0.0,96,0.00,,,0.00,0.00,VWS V14.01,2013-06-05 06:52:00,
2013-06-05 02:57:00,62.2,61.3,30.07,South,188,0.0,0.0,97,0.00,,,0.00,0.00,VWS V14.01,2013-06-05 06:57:00,
2013-06-05 03:02:00,62.2,61.3,30.07,South,188,0.0,0.0,97,0.00,,,0.00,0.00,VWS V14.01,2013-06-05 07:02:00,
2013-06-05 03:07:00,62.2,61.3,30.06,South,188,0.0,0.0,97,0.00,,,0.00,0.00,VWS V14.01,2013-06-05 07:07:00,
2013-06-05 03:12:00,62.3,61.4,30.07,South,188,0.0,1.0,97,0.00,,,0.00,0.00,VWS V14.01,2013-06-05 07:12:00,
2013-06-05 03:17:00,62.3,61.4,30.06,South,188,0.0,0.0,97,0.00,,,0.00,0.00,VWS V14.01,2013-06-05 07:17:00,
2013-06-05 03:22:00,62.3,61.4,30.06,South,188,0.0,0.0,97,0.00,,,0.00,0.00,VWS V14.01,2013-06-05 07:22:00,
2013-06-05 03:27:00,62.2,61.3,30.06,South,188,0.0,0.0,97,0.00,,,0.00,0.00,VWS V14.01,2013-06-05 07:27:00,
2013-06-05 03:32:00,62.2,61.3,30.06,South,188,0.0,0.0,97,0.00,,,0.00,0.00,VWS V14.01,2013-06-05 07:32:00,
2013-06-05 03:37:00,62.2,61.3,30.06,South,188,0.0,0.0,97,0.00,,,0.00,0.00,VWS V14.01,2013-06-05 07:37:00,
2013-06-05 03:42:00,62.2,61.3,30.07,South,188,0.0,0.0,97,0.00,,,0.00,0.00,VWS V14.01,2013-06-05 07:42:00,
2013-06-05 03:47:00,62.3,61.4,30.06,South,188,0.0,0.0,97,0.00,,,0.00,0.00,VWS V14.01,2013-06-05 07:47:00,
2013-06-05 03:52:00,62.3,61.4,30.06,South,188,0.0,0.0,97,0.00,,,0.00,0.00,VWS V14.01,2013-06-05 07:52:00,
2013-06-05 03:57:00,62.2,61.3,30.06,South,188,0.0,0.0,97,0.00,,,0.00,0.00,VWS V14.01,2013-06-05 07:57:00,
2013-06-05 04:02:00,62.2,61.3,30.06,South,188,0.0,0.0,97,0.00,,,0.00,0.00,VWS V14.01,2013-06-05 08:02:00,
2013-06-05 04:07:00,62.2,61.3,30.06,South,188,0.0,0.0,97,0.00,,,0.00,0.00,VWS V14.01,2013-06-05 08:07:00,
2013-06-05 04:12:00,62.1,61.2,30.07,South,188,0.0,0.0,97,0.00,,,0.00,0.00,VWS V14.01,2013-06-05 08:12:00,
2013-06-05 04:17:00,62.1,61.2,30.07,South,188,0.0,0.0,97,0.00,,,0.00,0.00,VWS V14.01,2013-06-05 08:17:00,
2013-06-05 04:22:00,62.1,61.2,30.07,South,188,0.0,0.0,97,0.00,,,0.00,0.00,VWS V14.01,2013-06-05 08:22:00,
2013-06-05 04:27:00,62.1,61.2,30.07,South,188,0.0,0.0,97,0.00,,,0.00,0.00,VWS V14.01,2013-06-05 08:27:00,
2013-06-05 04:32:00,62.2,61.3,30.07,South,188,0.0,0.0,97,0.00,,,0.00,0.00,VWS V14.01,2013-06-05 08:32:00,
2013-06-05 04:37:00,62.2,61.3,30.07,South,188,0.0,0.0,97,0.00,,,0.00,0.00,VWS V14.01,2013-06-05 08:37:00,
2013-06-05 04:42:00,62.2,61.3,30.07,South,188,0.0,0.0,97,0.00,,,0.00,0.00,VWS V14.01,2013-06-05 08:42:00,
2013-06-05 04:47:00,62.3,61.4,30.07,South,188,0.0,0.0,97,0.00,,,0.00,0.00,VWS V14.01,2013-06-05 08:47:00,
2013-06-05 04:52:00,62.5,61.6,30.07,South,188,0.0,0.0,97,0.00,,,0.00,0.00,VWS V14.01,2013-06-05 08:52:00,
2013-06-05 04:57:00,62.5,61.6,30.07,South,188,0.0,0.0,97,0.00,,,0.00,0.00,VWS V14.01,2013-06-05 08:57:00,
2013-06-05 05:02:00,62.6,61.7,30.06,South,188,0.0,0.0,97,0.00,,,0.00,0.00,VWS V14.01,2013-06-05 09:02:00,
2013-06-05 05:07:00,62.6,61.7,30.07,South,188,0.0,0.0,97,0.00,,,0.00,0.00,VWS V14.01,2013-06-05 09:07:00,
2013-06-05 05:12:00,62.7,61.8,30.07,South,188,0.0,0.0,97,0.00,,,0.00,0.00,VWS V14.01,2013-06-05 09:12:00,
2013-06-05 05:17:00,62.8,61.9,30.07,South,188,0.0,0.0,97,0.00,,,0.00,0.00,VWS V14.01,2013-06-05 09:17:00,
2013-06-05 05:22:00,62.9,62.3,30.07,South,188,0.0,0.0,98,0.00,,,0.00,0.00,VWS V14.01,2013-06-05 09:22:00,
2013-06-05 05:27:00,62.9,62.3,30.07,South,188,0.0,0.0,98,0.00,,,0.00,0.00,VWS V14.01,2013-06-05 09:27:00,
2013-06-05 05:32:00,62.9,62.3,30.07,South,188,0.0,0.0,98,0.00,,,0.00,0.00,VWS V14.01,2013-06-05 09:32:00,
2013-06-05 05:37:00,63.0,62.1,30.07,South,188,0.0,0.0,97,0.00,,,0.00,0.00,VWS V14.01,2013-06-05 09:37:00,
2013-06-05 05:42:00,63.1,62.2,30.08,South,188,0.0,0.0,97,0.00,,,0.00,0.00,VWS V14.01,2013-06-05 09:42:00,
2013-06-05 05:47:00,63.1,62.2,30.08,South,188,0.0,0.0,97,0.00,,,0.00,0.00,VWS V14.01,2013-06-05 09:47:00,
2013-06-05 05:52:00,63.1,62.2,30.08,South,188,0.0,0.0,97,0.00,,,0.00,0.00,VWS V14.01,2013-06-05 09:52:00,
2013-06-05 05:57:00,63.2,62.3,30.08,South,188,0.0,0.0,97,0.00,,,0.00,0.00,VWS V14.01,2013-06-05 09:57:00,
2013-06-05 06:02:00,63.2,62.3,30.08,SSW,211,0.0,0.0,97,0.00,,,0.00,0.00,VWS V14.01,2013-06-05 10:02:00,
2013-06-05 06:07:00,63.2,62.3,30.08,SSW,211,0.0,0.0,97,0.00,,,0.00,0.00,VWS V14.01,2013-06-05 10:07:00,
2013-06-05 06:12:00,63.2,62.3,30.08,SSW,211,0.0,0.0,97,0.00,,,0.00,0.00,VWS V14.01,2013-06-05 10:12:00,
2013-06-05 06:17:00,63.3,62.7,30.08,WSW,257,0.0,0.0,98,0.00,,,0.00,0.00,VWS V14.01,2013-06-05 10:17:00,
2013-06-05 06:22:00,63.3,62.7,30.08,WSW,257,0.0,0.0,98,0.00,,,0.00,0.00,VWS V14.01,2013-06-05 10:22:00,
2013-06-05 06:27:00,63.3,62.7,30.09,WSW,257,0.0,0.0,98,0.00,,,0.00,7.00,VWS V14.01,2013-06-05 10:27:00,
2013-06-05 06:32:00,63.4,62.8,30.09,WSW,242,0.0,0.0,98,0.00,,,0.00,12.00,VWS V14.01,2013-06-05 10:32:00,
2013-06-05 06:37:00,63.4,62.8,30.09,WSW,242,0.0,1.0,98,0.00,,,0.00,9.00,VWS V14.01,2013-06-05 10:37:00,
2013-06-05 06:42:00,63.4,62.5,30.09,WSW,242,0.0,0.0,97,0.00,,,0.00,9.00,VWS V14.01,2013-06-05 10:42:00,
2013-06-05 06:47:00,63.4,62.5,30.10,WSW,242,0.0,0.0,97,0.00,,,0.00,9.00,VWS V14.01,2013-06-05 10:47:00,
2013-06-05 06:52:00,63.5,62.6,30.10,WSW,242,0.0,0.0,97,0.00,,,0.00,9.00,VWS V14.01,2013-06-05 10:52:00,
2013-06-05 06:57:00,63.6,62.7,30.10,WSW,242,0.0,0.0,97,0.00,,,0.00,11.00,VWS V14.01,2013-06-05 10:57:00,
2013-06-05 07:02:00,63.6,62.7,30.10,WSW,242,0.0,0.0,97,0.00,,,0.00,16.00,VWS V14.01,2013-06-05 11:02:00,
2013-06-05 07:07:00,63.6,62.7,30.10,WSW,242,0.0,0.0,97,0.00,,,0.00,21.00,VWS V14.01,2013-06-05 11:07:00,
2013-06-05 07:12:00,63.7,62.8,30.10,WSW,242,0.0,0.0,97,0.00,,,0.00,53.00,VWS V14.01,2013-06-05 11:12:00,
2013-06-05 07:17:00,63.8,62.9,30.10,WSW,242,0.0,0.0,97,0.00,,,0.00,42.00,VWS V14.01,2013-06-05 11:17:00,
2013-06-05 07:22:00,63.9,63.0,30.10,WSW,242,0.0,0.0,97,0.00,,,0.00,26.00,VWS V14.01,2013-06-05 11:22:00,
2013-06-05 07:27:00,63.9,63.0,30.10,WSW,242,0.0,0.0,97,0.00,,,0.00,14.00,VWS V14.01,2013-06-05 11:27:00,
2013-06-05 07:32:00,64.0,63.1,30.10,WSW,242,0.0,1.0,97,0.00,,,0.00,5.00,VWS V14.01,2013-06-05 11:32:00,
2013-06-05 07:37:00,64.1,63.2,30.10,WSW,242,1.0,1.0,97,0.00,,,0.00,7.00,VWS V14.01,2013-06-05 11:37:00,
2013-06-05 07:42:00,64.1,63.2,30.10,WSW,242,0.0,0.0,97,0.01,,,0.01,14.00,VWS V14.01,2013-06-05 11:42:00,
2013-06-05 07:47:00,64.2,63.3,30.10,WSW,242,0.0,1.0,97,0.01,,,0.01,14.00,VWS V14.01,2013-06-05 11:47:00,
2013-06-05 07:52:00,64.2,63.3,30.11,WSW,242,0.0,0.0,97,0.01,,,0.01,12.00,VWS V14.01,2013-06-05 11:52:00,
2013-06-05 07:57:00,64.1,63.2,30.11,WSW,242,0.0,0.0,97,0.01,,,0.01,14.00,VWS V14.01,2013-06-05 11:57:00,
2013-06-05 08:02:00,64.1,62.9,30.11,WSW,242,0.0,0.0,96,0.01,,,0.01,19.00,VWS V14.01,2013-06-05 12:02:00,
2013-06-05 08:07:00,64.1,62.9,30.11,WSW,242,0.0,0.0,96,0.02,,,0.02,26.00,VWS V14.01,2013-06-05 12:07:00,
2013-06-05 08:12:00,64.1,62.9,30.11,WSW,242,0.0,1.0,96,0.03,,,0.03,19.00,VWS V14.01,2013-06-05 12:12:00,
2013-06-05 08:17:00,64.2,63.0,30.11,WSW,242,0.0,1.0,96,0.04,,,0.04,11.00,VWS V14.01,2013-06-05 12:17:00,
2013-06-05 08:22:00,64.2,63.0,30.11,WSW,242,0.0,0.0,96,0.05,,,0.05,5.00,VWS V14.01,2013-06-05 12:22:00,
2013-06-05 08:27:00,64.1,62.9,30.11,WNW,294,0.0,0.0,96,0.05,,,0.05,11.00,VWS V14.01,2013-06-05 12:27:00,
2013-06-05 08:32:00,64.0,63.1,30.11,NW,325,0.0,0.0,97,0.06,,,0.06,19.00,VWS V14.01,2013-06-05 12:32:00,
2013-06-05 08:37:00,64.0,63.1,30.11,NW,325,0.0,0.0,97,0.06,,,0.06,21.00,VWS V14.01,2013-06-05 12:37:00,
2013-06-05 08:42:00,64.0,63.1,30.11,NW,325,0.0,0.0,97,0.06,,,0.07,33.00,VWS V14.01,2013-06-05 12:42:00,
2013-06-05 08:47:00,64.0,63.1,30.11,NW,325,0.0,0.0,97,0.06,,,0.07,32.00,VWS V14.01,2013-06-05 12:47:00,
2013-06-05 08:52:00,64.0,63.1,30.11,ESE,107,0.0,0.0,97,0.07,,,0.08,39.00,VWS V14.01,2013-06-05 12:52:00,
2013-06-05 08:57:00,64.0,63.1,30.11,ESE,107,0.0,1.0,97,0.07,,,0.08,40.00,VWS V14.01,2013-06-05 12:57:00,
2013-06-05 09:02:00,64.1,63.2,30.11,ESE,107,0.0,0.0,97,0.07,,,0.08,40.00,VWS V14.01,2013-06-05 13:02:00,
2013-06-05 09:07:00,64.2,63.3,30.11,ESE,107,0.0,0.0,97,0.07,,,0.09,58.00,VWS V14.01,2013-06-05 13:07:00,
2013-06-05 09:12:00,64.3,63.4,30.11,ESE,107,0.0,0.0,97,0.06,,,0.09,74.00,VWS V14.01,2013-06-05 13:12:00,
2013-06-05 09:17:00,64.4,63.5,30.11,ESE,107,0.0,0.0,97,0.05,,,0.09,54.00,VWS V14.01,2013-06-05 13:17:00,
2013-06-05 09:22:00,64.4,63.5,30.11,ESE,107,1.0,2.0,97,0.05,,,0.09,49.00,VWS V14.01,2013-06-05 13:22:00,
2013-06-05 09:27:00,64.4,63.5,30.11,South,179,1.0,2.0,97,0.04,,,0.09,74.00,VWS V14.01,2013-06-05 13:27:00,
2013-06-05 09:32:00,64.5,63.6,30.11,South,186,0.0,0.0,97,0.03,,,0.09,54.00,VWS V14.01,2013-06-05 13:32:00,
2013-06-05 09:37:00,64.5,63.6,30.12,South,186,0.0,0.0,97,0.03,,,0.09,49.00,VWS V14.01,2013-06-05 13:37:00,
2013-06-05 09:42:00,64.6,63.7,30.12,South,186,0.0,1.0,97,0.02,,,0.09,62.00,VWS V14.01,2013-06-05 13:42:00,
2013-06-05 09:47:00,64.6,63.7,30.12,South,191,0.0,1.0,97,0.02,,,0.09,72.00,VWS V14.01,2013-06-05 13:47:00,
2013-06-05 09:52:00,64.6,63.7,30.11,South,174,0.0,0.0,97,0.02,,,0.09,74.00,VWS V14.01,2013-06-05 13:52:00,
2013-06-05 09:57:00,64.7,63.8,30.12,South,174,0.0,0.0,97,0.01,,,0.09,93.00,VWS V14.01,2013-06-05 13:57:00,
2013-06-05 10:02:00,64.7,63.8,30.12,South,174,0.0,0.0,97,0.01,,,0.09,98.00,VWS V14.01,2013-06-05 14:02:00,
2013-06-05 10:07:00,64.9,64.0,30.12,SSW,211,4.0,4.0,97,0.00,,,0.09,90.00,VWS V14.01,2013-06-05 14:07:00,
2013-06-05 10:12:00,65.0,64.1,30.12,SSW,213,0.0,0.0,97,0.00,,,0.09,121.00,VWS V14.01,2013-06-05 14:12:00,
2013-06-05 10:17:00,65.0,64.1,30.12,SSW,213,0.0,0.0,97,0.00,,,0.09,149.00,VWS V14.01,2013-06-05 14:17:00,
2013-06-05 10:22:00,65.2,64.3,30.12,SSW,213,0.0,0.0,97,0.00,,,0.09,160.00,VWS V14.01,2013-06-05 14:22:00,
2013-06-05 10:27:00,65.4,64.8,30.12,SSW,213,0.0,0.0,98,0.00,,,0.09,179.00,VWS V14.01,2013-06-05 14:27:00,
2013-06-05 10:32:00,65.7,64.8,30.12,SSW,213,0.0,0.0,97,0.00,,,0.09,144.00,VWS V14.01,2013-06-05 14:32:00,
2013-06-05 10:37:00,65.8,64.9,30.12,WNW,298,2.0,2.0,97,0.00,,,0.09,149.00,VWS V14.01,2013-06-05 14:37:00,
2013-06-05 10:42:00,65.8,64.9,30.12,West,276,1.0,2.0,97,0.00,,,0.09,127.00,VWS V14.01,2013-06-05 14:42:00,
2013-06-05 10:47:00,65.8,64.9,30.12,North,349,0.0,0.0,97,0.00,,,0.09,98.00,VWS V14.01,2013-06-05 14:47:00,
2013-06-05 10:52:00,65.9,65.0,30.12,North,349,0.0,0.0,97,0.00,,,0.09,102.00,VWS V14.01,2013-06-05 14:52:00,
2013-06-05 10:57:00,65.9,65.0,30.12,North,349,0.0,0.0,97,0.00,,,0.09,102.00,VWS V14.01,2013-06-05 14:57:00,
2013-06-05 11:02:00,66.0,65.1,30.12,North,349,0.0,0.0,97,0.00,,,0.09,91.00,VWS V14.01,2013-06-05 15:02:00,
2013-06-05 11:07:00,66.0,65.1,30.12,North,349,0.0,0.0,97,0.00,,,0.09,100.00,VWS V14.01,2013-06-05 15:07:00,
2013-06-05 11:12:00,66.0,64.8,30.12,WNW,292,0.0,0.0,96,0.00,,,0.09,111.00,VWS V14.01,2013-06-05 15:12:00,
2013-06-05 11:17:00,66.1,64.9,30.11,WNW,292,0.0,0.0,96,0.00,,,0.09,146.00,VWS V14.01,2013-06-05 15:17:00,
2013-06-05 11:22:00,66.2,65.0,30.11,WNW,291,0.0,0.0,96,0.00,,,0.09,113.00,VWS V14.01,2013-06-05 15:22:00,
2013-06-05 11:27:00,66.2,65.0,30.11,WNW,291,0.0,0.0,96,0.00,,,0.09,149.00,VWS V14.01,2013-06-05 15:27:00,
2013-06-05 11:32:00,66.3,65.1,30.11,WNW,291,0.0,0.0,96,0.00,,,0.09,114.00,VWS V14.01,2013-06-05 15:32:00,
2013-06-05 11:37:00,66.3,65.1,30.11,WNW,291,0.0,0.0,96,0.00,,,0.09,86.00,VWS V14.01,2013-06-05 15:37:00,
2013-06-05 11:42:00,66.4,64.9,30.11,WNW,291,0.0,0.0,95,0.00,,,0.09,72.00,VWS V14.01,2013-06-05 15:42:00,
2013-06-05 11:47:00,66.5,65.0,30.11,NW,304,0.0,0.0,95,0.00,,,0.09,58.00,VWS V14.01,2013-06-05 15:47:00,
2013-06-05 11:52:00,66.5,65.0,30.11,NW,304,0.0,0.0,95,0.00,,,0.09,54.00,VWS V14.01,2013-06-05 15:52:00,
2013-06-05 11:57:00,66.5,65.0,30.11,NW,304,0.0,0.0,95,0.00,,,0.09,58.00,VWS V14.01,2013-06-05 15:57:00,
2013-06-05 12:02:00,66.6,65.1,30.11,NW,304,0.0,0.0,95,0.00,,,0.09,67.00,VWS V14.01,2013-06-05 16:02:00,
2013-06-05 12:07:00,66.6,65.1,30.11,NW,304,0.0,0.0,95,0.00,,,0.09,62.00,VWS V14.01,2013-06-05 16:07:00,
2013-06-05 12:12:00,66.7,65.2,30.11,NW,304,0.0,0.0,95,0.00,,,0.09,79.00,VWS V14.01,2013-06-05 16:12:00,
2013-06-05 12:17:00,66.7,65.2,30.11,NW,304,0.0,0.0,95,0.00,,,0.09,76.00,VWS V14.01,2013-06-05 16:17:00,
2013-06-05 12:22:00,66.8,65.3,30.11,NW,304,0.0,0.0,95,0.00,,,0.09,77.00,VWS V14.01,2013-06-05 16:22:00,
2013-06-05 12:27:00,66.8,65.3,30.11,NW,304,0.0,0.0,95,0.00,,,0.09,79.00,VWS V14.01,2013-06-05 16:27:00,
2013-06-05 12:32:00,66.8,65.3,30.11,NW,304,0.0,0.0,95,0.00,,,0.09,104.00,VWS V14.01,2013-06-05 16:32:00,
2013-06-05 12:37:00,66.8,65.3,30.11,NW,304,0.0,0.0,95,0.00,,,0.09,118.00,VWS V14.01,2013-06-05 16:37:00,
2013-06-05 12:42:00,66.9,65.4,30.10,NW,304,0.0,0.0,95,0.00,,,0.09,125.00,VWS V14.01,2013-06-05 16:42:00,
2013-06-05 12:47:00,67.0,65.5,30.10,NW,304,0.0,0.0,95,0.00,,,0.09,132.00,VWS V14.01,2013-06-05 16:47:00,
2013-06-05 12:52:00,67.1,65.6,30.10,NW,304,0.0,0.0,95,0.00,,,0.09,142.00,VWS V14.01,2013-06-05 16:52:00,
2013-06-05 12:57:00,67.3,65.8,30.10,NW,304,0.0,0.0,95,0.00,,,0.09,160.00,VWS V14.01,2013-06-05 16:57:00,
2013-06-05 13:02:00,67.3,65.8,30.10,NW,304,0.0,0.0,95,0.00,,,0.09,162.00,VWS V14.01,2013-06-05 17:02:00,
2013-06-05 13:07:00,67.6,66.1,30.10,NW,304,0.0,0.0,95,0.00,,,0.09,174.00,VWS V14.01,2013-06-05 17:07:00,
2013-06-05 13:12:00,67.6,66.1,30.10,NW,304,0.0,0.0,95,0.00,,,0.09,214.00,VWS V14.01,2013-06-05 17:12:00,
2013-06-05 13:17:00,67.9,66.4,30.10,NW,304,0.0,0.0,95,0.00,,,0.09,213.00,VWS V14.01,2013-06-05 17:17:00,
2013-06-05 13:22:00,68.1,66.6,30.10,NW,304,0.0,0.0,95,0.00,,,0.09,306.00,VWS V14.01,2013-06-05 17:22:00,
2013-06-05 13:27:00,68.3,66.5,30.10,NW,304,0.0,0.0,94,0.00,,,0.09,343.00,VWS V14.01,2013-06-05 17:27:00,
2013-06-05 13:32:00,68.5,65.5,30.10,NW,308,0.0,0.0,90,0.00,,,0.09,418.00,VWS V14.01,2013-06-05 17:32:00,
2013-06-05 13:37:00,69.2,65.5,30.09,SW,227,0.0,0.0,88,0.00,,,0.09,438.00,VWS V14.01,2013-06-05 17:37:00,
2013-06-05 13:42:00,69.6,64.9,30.10,SW,227,0.0,0.0,85,0.00,,,0.09,185.00,VWS V14.01,2013-06-05 17:42:00,
2013-06-05 13:47:00,69.6,64.2,30.10,SW,225,0.0,1.0,83,0.00,,,0.09,105.00,VWS V14.01,2013-06-05 17:47:00,
2013-06-05 13:52:00,69.5,63.8,30.10,SW,225,0.0,0.0,82,0.00,,,0.09,88.00,VWS V14.01,2013-06-05 17:52:00,
2013-06-05 13:57:00,69.4,64.0,30.10,SW,225,0.0,0.0,83,0.00,,,0.09,109.00,VWS V14.01,2013-06-05 17:57:00,
2013-06-05 14:02:00,69.2,64.2,30.10,SW,225,0.0,0.0,84,0.00,,,0.09,155.00,VWS V14.01,2013-06-05 18:02:00,
2013-06-05 14:07:00,69.0,64.3,30.10,SW,225,0.0,0.0,85,0.00,,,0.09,116.00,VWS V14.01,2013-06-05 18:07:00,
2013-06-05 14:12:00,68.8,63.8,30.09,SW,225,0.0,2.0,84,0.00,,,0.09,116.00,VWS V14.01,2013-06-05 18:12:00,
2013-06-05 14:17:00,68.8,63.8,30.09,SW,225,0.0,0.0,84,0.00,,,0.09,171.00,VWS V14.01,2013-06-05 18:17:00,
2013-06-05 14:22:00,68.7,63.7,30.09,SW,225,0.0,0.0,84,0.00,,,0.09,211.00,VWS V14.01,2013-06-05 18:22:00,
2013-06-05 14:27:00,68.7,63.7,30.09,SW,225,0.0,0.0,84,0.00,,,0.09,162.00,VWS V14.01,2013-06-05 18:27:00,
2013-06-05 14:32:00,68.8,63.8,30.08,SW,225,0.0,1.0,84,0.00,,,0.09,141.00,VWS V14.01,2013-06-05 18:32:00,
2013-06-05 14:37:00,68.7,63.7,30.08,SW,225,0.0,0.0,84,0.00,,,0.09,183.00,VWS V14.01,2013-06-05 18:37:00,
2013-06-05 14:42:00,68.8,63.8,30.08,SW,225,0.0,1.0,84,0.00,,,0.09,290.00,VWS V14.01,2013-06-05 18:42:00,
2013-06-05 14:47:00,68.8,63.4,30.08,SW,225,0.0,2.0,83,0.00,,,0.09,420.00,VWS V14.01,2013-06-05 18:47:00,
2013-06-05 14:52:00,69.4,64.7,30.08,SW,225,1.0,1.0,85,0.00,,,0.09,1071.00,VWS V14.01,2013-06-05 18:52:00,
2013-06-05 14:57:00,69.9,63.8,30.08,SE,134,0.0,0.0,81,0.00,,,0.09,262.00,VWS V14.01,2013-06-05 18:57:00,
2013-06-05 15:02:00,70.5,64.4,30.08,WSW,246,0.0,0.0,81,0.00,,,0.09,262.00,VWS V14.01,2013-06-05 19:02:00,
2013-06-05 15:07:00,70.8,64.0,30.08,WSW,238,1.0,1.0,79,0.00,,,0.09,313.00,VWS V14.01,2013-06-05 19:07:00,
2013-06-05 15:12:00,71.3,64.8,30.07,WSW,241,1.0,2.0,80,0.00,,,0.09,269.00,VWS V14.01,2013-06-05 19:12:00,
2013-06-05 15:17:00,71.5,63.9,30.07,WSW,241,0.0,0.0,77,0.00,,,0.09,297.00,VWS V14.01,2013-06-05 19:17:00,
2013-06-05 15:22:00,71.7,64.1,30.07,North,355,0.0,2.0,77,0.00,,,0.09,369.00,VWS V14.01,2013-06-05 19:22:00,
2013-06-05 15:27:00,72.0,64.8,30.06,North,355,0.0,0.0,78,0.00,,,0.09,468.00,VWS V14.01,2013-06-05 19:27:00,
2013-06-05 15:32:00,72.5,64.1,30.06,ENE,74,2.0,2.0,75,0.00,,,0.09,309.00,VWS V14.01,2013-06-05 19:32:00,
2013-06-05 15:37:00,72.5,64.1,30.06,East,89,0.0,0.0,75,0.00,,,0.09,313.00,VWS V14.01,2013-06-05 19:37:00,
2013-06-05 15:42:00,72.8,64.4,30.06,South,183,1.0,1.0,75,0.00,,,0.09,406.00,VWS V14.01,2013-06-05 19:42:00,
2013-06-05 15:47:00,73.2,64.8,30.05,ENE,64,0.0,1.0,75,0.00,,,0.09,304.00,VWS V14.01,2013-06-05 19:47:00,
2013-06-05 15:52:00,73.4,65.0,30.05,ENE,64,0.0,1.0,75,0.00,,,0.09,243.00,VWS V14.01,2013-06-05 19:52:00,
2013-06-05 15:57:00,73.4,64.6,30.05,ENE,64,0.0,1.0,74,0.00,,,0.09,246.00,VWS V14.01,2013-06-05 19:57:00,
2013-06-05 16:02:00,73.5,64.7,30.05,ENE,64,0.0,1.0,74,0.00,,,0.09,318.00,VWS V14.01,2013-06-05 20:02:00,
2013-06-05 16:07:00,73.4,65.0,30.05,South,177,0.0,2.0,75,0.00,,,0.09,278.00,VWS V14.01,2013-06-05 20:07:00,
2013-06-05 16:12:00,73.5,64.3,30.05,SE,144,0.0,0.0,73,0.00,,,0.09,285.00,VWS V14.01,2013-06-05 20:12:00,
2013-06-05 16:17:00,73.8,65.0,30.05,SE,144,0.0,0.0,74,0.00,,,0.09,306.00,VWS V14.01,2013-06-05 20:17:00,
2013-06-05 16:22:00,74.0,65.6,30.05,SE,144,0.0,0.0,75,0.00,,,0.09,313.00,VWS V14.01,2013-06-05 20:22:00,
2013-06-05 16:27:00,74.5,65.7,30.04,SSW,199,0.0,0.0,74,0.00,,,0.09,341.00,VWS V14.01,2013-06-05 20:27:00,
2013-06-05 16:32:00,74.8,66.3,30.04,SE,142,0.0,0.0,75,0.00,,,0.09,283.00,VWS V14.01,2013-06-05 20:32:00,
2013-06-05 16:37:00,75.1,65.9,30.04,SE,144,0.0,1.0,73,0.00,,,0.09,563.00,VWS V14.01,2013-06-05 20:37:00,
2013-06-05 16:42:00,75.4,65.8,30.04,SE,144,0.0,0.0,72,0.00,,,0.09,221.00,VWS V14.01,2013-06-05 20:42:00,
2013-06-05 16:47:00,75.5,66.2,30.03,SE,144,0.0,0.0,73,0.00,,,0.09,223.00,VWS V14.01,2013-06-05 20:47:00,
2013-06-05 16:52:00,75.6,66.7,30.03,ESE,120,0.0,1.0,74,0.00,,,0.09,295.00,VWS V14.01,2013-06-05 20:52:00,
2013-06-05 16:57:00,75.6,66.7,30.03,ESE,120,0.0,1.0,74,0.00,,,0.09,334.00,VWS V14.01,2013-06-05 20:57:00,
2013-06-05 17:02:00,76.2,66.9,30.03,ESE,121,0.0,1.0,73,0.00,,,0.09,696.00,VWS V14.01,2013-06-05 21:02:00,
2013-06-05 17:07:00,76.8,66.3,30.03,ESE,121,0.0,1.0,70,0.00,,,0.09,378.00,VWS V14.01,2013-06-05 21:07:00,
2013-06-05 17:12:00,77.1,66.6,30.03,ESE,121,0.0,0.0,70,0.00,,,0.09,543.00,VWS V14.01,2013-06-05 21:12:00,
2013-06-05 17:17:00,77.4,66.9,30.03,ESE,121,0.0,1.0,70,0.00,,,0.09,531.00,VWS V14.01,2013-06-05 21:17:00,
2013-06-05 17:22:00,77.6,67.1,30.03,SE,134,0.0,2.0,70,0.00,,,0.09,598.00,VWS V14.01,2013-06-05 21:22:00,
2013-06-05 17:27:00,78.0,67.0,30.03,South,185,0.0,1.0,69,0.00,,,0.09,504.00,VWS V14.01,2013-06-05 21:27:00,
2013-06-05 17:32:00,78.1,67.5,30.03,SE,142,1.0,2.0,70,0.00,,,0.09,466.00,VWS V14.01,2013-06-05 21:32:00,
2013-06-05 17:37:00,78.0,67.0,30.02,SE,142,0.0,1.0,69,0.00,,,0.09,468.00,VWS V14.01,2013-06-05 21:37:00,
2013-06-05 17:42:00,77.9,66.9,30.02,ESE,117,0.0,0.0,69,0.00,,,0.09,156.00,VWS V14.01,2013-06-05 21:42:00,
2013-06-05 17:47:00,77.8,67.2,30.02,ESE,119,1.0,1.0,70,0.00,,,0.09,192.00,VWS V14.01,2013-06-05 21:47:00,
2013-06-05 17:52:00,77.6,67.5,30.02,ESE,119,0.0,1.0,71,0.00,,,0.09,172.00,VWS V14.01,2013-06-05 21:52:00,
2013-06-05 17:57:00,77.3,66.8,30.01,SSW,196,0.0,1.0,70,0.00,,,0.09,120.00,VWS V14.01,2013-06-05 21:57:00,
2013-06-05 18:02:00,76.9,66.8,30.01,South,185,0.0,0.0,71,0.00,,,0.09,109.00,VWS V14.01,2013-06-05 22:02:00,
2013-06-05 18:07:00,76.6,66.5,30.01,NE,54,0.0,0.0,71,0.00,,,0.09,102.00,VWS V14.01,2013-06-05 22:07:00,
2013-06-05 18:12:00,76.2,66.5,30.01,SSW,209,0.0,0.0,72,0.00,,,0.09,95.00,VWS V14.01,2013-06-05 22:12:00,
2013-06-05 18:17:00,76.1,66.8,30.00,SE,133,1.0,1.0,73,0.00,,,0.09,90.00,VWS V14.01,2013-06-05 22:17:00,
2013-06-05 18:22:00,76.0,67.1,30.00,SE,142,2.0,2.0,74,0.00,,,0.09,84.00,VWS V14.01,2013-06-05 22:22:00,
2013-06-05 18:27:00,75.9,67.0,30.00,SSW,209,3.0,3.0,74,0.00,,,0.09,86.00,VWS V14.01,2013-06-05 22:27:00,
2013-06-05 18:32:00,75.7,66.8,30.00,SSW,208,0.0,1.0,74,0.00,,,0.09,88.00,VWS V14.01,2013-06-05 22:32:00,
2013-06-05 18:37:00,75.6,67.1,30.00,South,179,0.0,1.0,75,0.00,,,0.09,83.00,VWS V14.01,2013-06-05 22:37:00,
2013-06-05 18:42:00,75.5,67.4,30.00,South,179,0.0,0.0,76,0.00,,,0.09,77.00,VWS V14.01,2013-06-05 22:42:00,
2013-06-05 18:47:00,75.4,67.3,30.00,South,179,0.0,0.0,76,0.00,,,0.09,81.00,VWS V14.01,2013-06-05 22:47:00,
2013-06-05 18:52:00,75.2,67.5,30.00,ENE,63,0.0,1.0,77,0.00,,,0.09,77.00,VWS V14.01,2013-06-05 22:52:00,
2013-06-05 18:57:00,75.2,67.5,30.00,ENE,63,0.0,0.0,77,0.00,,,0.09,74.00,VWS V14.01,2013-06-05 22:57:00,
2013-06-05 19:02:00,75.0,66.9,30.00,SE,128,0.0,0.0,76,0.00,,,0.09,67.00,VWS V14.01,2013-06-05 23:02:00,
2013-06-05 19:07:00,74.9,67.2,29.99,SE,128,0.0,0.0,77,0.00,,,0.09,67.00,VWS V14.01,2013-06-05 23:07:00,
2013-06-05 19:12:00,74.7,67.4,30.00,SE,128,0.0,0.0,78,0.00,,,0.09,67.00,VWS V14.01,2013-06-05 23:12:00,
2013-06-05 19:17:00,74.6,67.7,29.99,SE,128,0.0,0.0,79,0.00,,,0.09,51.00,VWS V14.01,2013-06-05 23:17:00,
2013-06-05 19:22:00,74.6,68.4,30.00,SE,128,0.0,0.0,81,0.00,,,0.09,56.00,VWS V14.01,2013-06-05 23:22:00,
2013-06-05 19:27:00,74.2,68.0,30.00,East,97,1.0,2.0,81,0.00,,,0.09,56.00,VWS V14.01,2013-06-05 23:27:00,
2013-06-05 19:32:00,73.7,67.9,30.00,North,11,0.0,1.0,82,0.00,,,0.09,54.00,VWS V14.01,2013-06-05 23:32:00,
2013-06-05 19:37:00,73.4,67.6,30.00,North,355,0.0,0.0,82,0.00,,,0.09,53.00,VWS V14.01,2013-06-05 23:37:00,
2013-06-05 19:42:00,73.0,67.5,30.00,NW,321,0.0,2.0,83,0.00,,,0.09,46.00,VWS V14.01,2013-06-05 23:42:00,
2013-06-05 19:47:00,72.7,67.2,30.00,NW,321,0.0,0.0,83,0.00,,,0.09,21.00,VWS V14.01,2013-06-05 23:47:00,
2013-06-05 19:52:00,72.3,67.2,30.00,NW,321,1.0,1.0,84,0.00,,,0.09,11.00,VWS V14.01,2013-06-05 23:52:00,
2013-06-05 19:57:00,72.0,66.9,30.00,NW,321,2.0,2.0,84,0.00,,,0.09,11.00,VWS V14.01,2013-06-05 23:57:00,
2013-06-05 20:02:00,71.6,66.9,30.01,WSW,254,0.0,1.0,85,0.00,,,0.09,12.00,VWS V14.01,2013-06-06 00:02:00,
2013-06-05 20:07:00,71.2,66.8,30.01,WSW,254,1.0,1.0,86,0.00,,,0.09,7.00,VWS V14.01,2013-06-06 00:07:00,
2013-06-05 20:12:00,70.8,66.4,30.01,WSW,254,0.0,0.0,86,0.00,,,0.09,5.00,VWS V14.01,2013-06-06 00:12:00,
2013-06-05 20:17:00,70.5,66.4,30.01,WSW,254,0.0,0.0,87,0.00,,,0.09,5.00,VWS V14.01,2013-06-06 00:17:00,
2013-06-05 20:22:00,70.2,66.2,30.01,WSW,254,0.0,1.0,87,0.00,,,0.09,0.00,VWS V14.01,2013-06-06 00:22:00,
2013-06-05 20:27:00,69.9,65.9,30.01,WSW,254,0.0,0.0,87,0.00,,,0.09,0.00,VWS V14.01,2013-06-06 00:27:00,
2013-06-05 20:32:00,69.6,65.9,30.01,WNW,296,0.0,0.0,88,0.00,,,0.09,0.00,VWS V14.01,2013-06-06 00:32:00,
2013-06-05 20:37:00,69.4,65.7,30.01,WNW,296,0.0,0.0,88,0.00,,,0.09,0.00,VWS V14.01,2013-06-06 00:37:00,
2013-06-05 20:42:00,69.3,65.6,30.00,WNW,296,0.0,0.0,88,0.00,,,0.09,0.00,VWS V14.01,2013-06-06 00:42:00,
2013-06-05 20:47:00,69.1,65.4,30.01,WNW,296,0.0,0.0,88,0.00,,,0.09,0.00,VWS V14.01,2013-06-06 00:47:00,
2013-06-05 20:52:00,69.0,65.6,30.00,WNW,296,0.0,0.0,89,0.00,,,0.09,0.00,VWS V14.01,2013-06-06 00:52:00,
2013-06-05 20:57:00,68.9,65.5,30.00,WNW,296,0.0,0.0,89,0.00,,,0.09,0.00,VWS V14.01,2013-06-06 00:57:00,
2013-06-05 21:02:00,68.7,65.3,30.00,WNW,296,0.0,1.0,89,0.00,,,0.09,0.00,VWS V14.01,2013-06-06 01:02:00,
2013-06-05 21:07:00,68.6,65.2,30.00,WNW,296,0.0,0.0,89,0.00,,,0.09,0.00,VWS V14.01,2013-06-06 01:07:00,
2013-06-05 21:12:00,68.4,65.0,30.01,West,272,0.0,0.0,89,0.00,,,0.09,0.00,VWS V14.01,2013-06-06 01:12:00,
2013-06-05 21:17:00,68.3,64.9,30.01,SW,221,0.0,0.0,89,0.00,,,0.09,0.00,VWS V14.01,2013-06-06 01:17:00,
2013-06-05 21:22:00,68.2,65.2,30.01,SW,221,2.0,2.0,90,0.00,,,0.09,0.00,VWS V14.01,2013-06-06 01:22:00,
2013-06-05 21:27:00,68.1,65.1,30.01,SW,221,0.0,0.0,90,0.00,,,0.09,0.00,VWS V14.01,2013-06-06 01:27:00,
2013-06-05 21:32:00,68.0,65.0,30.01,SW,221,0.0,0.0,90,0.00,,,0.09,0.00,VWS V14.01,2013-06-06 01:32:00,
2013-06-05 21:37:00,67.9,64.9,30.01,SW,221,0.0,0.0,90,0.00,,,0.09,0.00,VWS V14.01,2013-06-06 01:37:00,
2013-06-05 21:42:00,67.8,64.8,30.02,SW,221,0.0,0.0,90,0.00,,,0.09,0.00,VWS V14.01,2013-06-06 01:42:00,
2013-06-05 21:47:00,67.7,64.7,30.02,SW,221,0.0,0.0,90,0.00,,,0.09,0.00,VWS V14.01,2013-06-06 01:47:00,
2013-06-05 21:52:00,67.7,65.0,30.02,SW,221,0.0,0.0,91,0.00,,,0.09,0.00,VWS V14.01,2013-06-06 01:52:00,
2013-06-05 21:57:00,67.6,64.9,30.02,SW,221,0.0,0.0,91,0.00,,,0.09,0.00,VWS V14.01,2013-06-06 01:57:00,
2013-06-05 22:02:00,67.6,64.6,30.02,SW,221,0.0,0.0,90,0.00,,,0.09,0.00,VWS V14.01,2013-06-06 02:02:00,
2013-06-05 22:07:00,67.5,64.5,30.02,SW,221,0.0,0.0,90,0.00,,,0.09,0.00,VWS V14.01,2013-06-06 02:07:00,
2013-06-05 22:12:00,67.4,64.4,30.02,SW,221,0.0,0.0,90,0.00,,,0.09,0.00,VWS V14.01,2013-06-06 02:12:00,
2013-06-05 22:17:00,67.4,64.4,30.02,SW,221,0.0,0.0,90,0.00,,,0.09,0.00,VWS V14.01,2013-06-06 02:17:00,
2013-06-05 22:22:00,67.4,64.7,30.02,SW,221,0.0,0.0,91,0.00,,,0.09,0.00,VWS V14.01,2013-06-06 02:22:00,
2013-06-05 22:27:00,67.3,64.3,30.02,SW,221,0.0,0.0,90,0.00,,,0.09,0.00,VWS V14.01,2013-06-06 02:27:00,
2013-06-05 22:32:00,67.3,64.3,30.02,SW,221,0.0,0.0,90,0.00,,,0.09,0.00,VWS V14.01,2013-06-06 02:32:00,
2013-06-05 22:37:00,67.3,64.3,30.02,SW,221,0.0,0.0,90,0.00,,,0.09,0.00,VWS V14.01,2013-06-06 02:37:00,
2013-06-05 22:42:00,67.2,64.5,30.02,SW,221,0.0,1.0,91,0.00,,,0.09,0.00,VWS V14.01,2013-06-06 02:42:00,
2013-06-05 22:47:00,67.2,64.5,30.02,WSW,240,0.0,0.0,91,0.00,,,0.09,0.00,VWS V14.01,2013-06-06 02:47:00,
2013-06-05 22:52:00,67.2,64.5,30.02,WSW,240,0.0,0.0,91,0.00,,,0.09,0.00,VWS V14.01,2013-06-06 02:52:00,
2013-06-05 22:57:00,67.1,64.1,30.01,WSW,240,0.0,0.0,90,0.00,,,0.09,0.00,VWS V14.01,2013-06-06 02:57:00,
2013-06-05 23:02:00,67.1,64.1,30.01,WSW,240,0.0,0.0,90,0.00,,,0.09,0.00,VWS V14.01,2013-06-06 03:02:00,
2013-06-05 23:07:00,67.1,64.1,30.01,WSW,240,2.0,2.0,90,0.00,,,0.09,0.00,VWS V14.01,2013-06-06 03:07:00,
2013-06-05 23:12:00,67.1,64.1,30.01,WSW,240,0.0,0.0,90,0.00,,,0.09,0.00,VWS V14.01,2013-06-06 03:12:00,
2013-06-05 23:17:00,67.0,64.0,30.01,WSW,240,0.0,1.0,90,0.00,,,0.09,0.00,VWS V14.01,2013-06-06 03:17:00,
2013-06-05 23:22:00,67.0,64.0,30.01,WSW,240,0.0,0.0,90,0.00,,,0.09,0.00,VWS V14.01,2013-06-06 03:22:00,
2013-06-05 23:27:00,66.9,64.2,30.01,WSW,240,0.0,0.0,91,0.00,,,0.09,0.00,VWS V14.01,2013-06-06 03:27:00,
2013-06-05 23:32:00,67.0,64.3,30.00,WSW,240,0.0,0.0,91,0.00,,,0.09,0.00,VWS V14.01,2013-06-06 03:32:00,
2013-06-05 23:37:00,66.9,64.2,30.00,WSW,240,0.0,1.0,91,0.00,,,0.09,0.00,VWS V14.01,2013-06-06 03:37:00,
2013-06-05 23:42:00,66.9,64.2,30.00,WSW,239,0.0,0.0,91,0.00,,,0.09,0.00,VWS V14.01,2013-06-06 03:42:00,
2013-06-05 23:47:00,66.9,64.2,30.00,WSW,239,0.0,0.0,91,0.00,,,0.09,0.00,VWS V14.01,2013-06-06 03:47:00,
2013-06-05 23:52:00,66.9,64.2,30.01,WSW,239,0.0,0.0,91,0.00,,,0.09,0.00,VWS V14.01,2013-06-06 03:52:00,
2013-06-05 23:57:00,66.9,64.2,30.01,WSW,239,2.0,2.0,91,0.00,,,0.09,0.00,VWS V14.01,2013-06-06 03:57:00,